createdAt,value
2018-05-04T00:00:30.108Z,2.85
2018-05-04T00:02:57.518Z,4.25
2018-05-04T00:05:24.937Z,2.60
2018-05-04T00:07:52.348Z,1.30
2018-05-04T00:10:19.748Z,1.95
2018-05-04T00:12:47.173Z,6.45
2018-05-04T00:15:14.569Z,3.05
2018-05-04T00:17:41.976Z,3.87
2018-05-04T00:20:09.385Z,3.67
2018-05-04T00:22:36.793Z,1.83
2018-05-04T00:25:04.200Z,5.07
2018-05-04T00:27:31.619Z,2.03
2018-05-04T00:29:59.024Z,1.95
2018-05-04T00:32:26.437Z,3.53
2018-05-04T00:34:53.843Z,2.58
2018-05-04T00:37:21.255Z,1.20
2018-05-04T00:39:48.664Z,0.90
2018-05-04T00:42:16.072Z,1.73
2018-05-04T00:44:43.476Z,1.92
2018-05-04T00:47:10.893Z,1.85
2018-05-04T00:49:38.293Z,1.73
2018-05-04T00:52:05.709Z,1.90
2018-05-04T00:54:33.108Z,3.50
2018-05-04T00:57:00.528Z,1.50
2018-05-04T00:59:27.929Z,3.17
2018-05-04T01:01:55.341Z,2.28
2018-05-04T01:04:22.744Z,1.30
2018-05-04T01:06:50.153Z,1.20
2018-05-04T01:09:17.551Z,1.87
2018-05-04T01:11:44.956Z,1.50
2018-05-04T01:14:12.368Z,1.80
2018-05-04T01:16:39.781Z,1.80
2018-05-04T01:19:07.181Z,2.25
2018-05-04T01:21:34.591Z,2.50
2018-05-04T01:24:01.989Z,1.73
2018-05-04T01:26:29.402Z,2.50
2018-05-04T01:28:56.808Z,1.98
2018-05-04T01:31:24.215Z,3.33
2018-05-04T01:33:51.629Z,2.58
2018-05-04T01:36:19.036Z,1.25
2018-05-04T01:38:46.445Z,9.20
2018-05-04T01:41:13.872Z,1.33
2018-05-04T01:43:41.277Z,3.03
2018-05-04T01:46:08.680Z,2.67
2018-05-04T01:48:36.092Z,2.45
2018-05-04T01:51:03.486Z,1.50
2018-05-04T01:53:30.903Z,1.87
2018-05-04T01:55:58.295Z,1.62
2018-05-04T01:58:25.704Z,1.87
2018-05-04T02:00:53.104Z,2.10
2018-05-04T02:03:20.517Z,5.28
2018-05-04T02:05:47.912Z,2.65
2018-05-04T02:08:15.329Z,2.35
2018-05-04T02:10:42.728Z,2.58
2018-05-04T02:13:10.161Z,2.92
2018-05-04T02:15:37.559Z,1.80
2018-05-04T02:18:04.967Z,1.85
2018-05-04T02:20:32.372Z,3.70
2018-05-04T02:22:59.784Z,3.10
2018-05-04T02:25:27.189Z,1.60
2018-05-04T02:27:54.599Z,2.47
2018-05-04T02:30:22.001Z,2.90
2018-05-04T02:32:49.404Z,1.98
2018-05-04T02:35:16.805Z,3.10
2018-05-04T02:37:44.216Z,1.62
2018-05-04T02:40:11.621Z,2.33
2018-05-04T02:42:39.032Z,3.72
2018-05-04T02:45:06.433Z,1.75
2018-05-04T02:47:33.846Z,3.45
2018-05-04T02:50:01.266Z,1.85
2018-05-04T02:52:28.657Z,1.70
2018-05-04T02:54:56.056Z,1.85
2018-05-04T02:57:23.471Z,2.75
2018-05-04T02:59:50.864Z,1.60
2018-05-04T03:02:18.298Z,1.65
2018-05-04T03:04:45.704Z,2.40
2018-05-04T03:07:13.108Z,2.35
2018-05-04T03:09:40.512Z,2.05
2018-05-04T03:12:07.918Z,1.40
2018-05-04T03:14:35.317Z,2.58
2018-05-04T03:17:02.736Z,1.80
2018-05-04T03:19:30.141Z,1.50
2018-05-04T03:21:57.549Z,1.92
2018-05-04T03:24:24.987Z,2.12
2018-05-04T03:26:52.377Z,2.92
2018-05-04T03:29:19.792Z,2.03
2018-05-04T03:31:47.193Z,2.15
2018-05-04T03:34:14.704Z,2.15
2018-05-04T03:36:42.104Z,1.83
2018-05-04T03:39:09.521Z,1.55
2018-05-04T03:41:36.921Z,3.80
2018-05-04T03:44:04.333Z,1.83
2018-05-04T03:46:32.545Z,2.00
2018-05-04T03:48:59.951Z,1.87
2018-05-04T03:51:27.347Z,2.55
2018-05-04T03:53:54.752Z,1.75
2018-05-04T03:56:22.153Z,3.10
2018-05-04T03:59:01.352Z,3.25
2018-05-04T04:01:40.503Z,2.00
2018-05-04T04:04:11.786Z,2.90
2018-05-04T04:06:39.180Z,2.60
2018-05-04T04:09:06.596Z,3.70
2018-05-04T04:11:34.004Z,2.55
2018-05-04T04:14:01.416Z,1.98
2018-05-04T04:16:28.818Z,2.28
2018-05-04T04:18:56.233Z,3.08
2018-05-04T04:21:23.636Z,4.45
2018-05-04T04:23:51.054Z,2.20
2018-05-04T04:26:18.460Z,2.67
2018-05-04T04:28:45.864Z,1.60
2018-05-04T04:31:13.268Z,4.95
2018-05-04T04:33:40.680Z,3.35
2018-05-04T04:36:08.081Z,1.20
2018-05-04T04:38:35.491Z,2.05
2018-05-04T04:41:02.909Z,1.90
2018-05-04T04:43:30.317Z,3.20
2018-05-04T04:45:57.724Z,2.30
2018-05-04T04:48:25.120Z,2.35
2018-05-04T04:50:52.527Z,1.62
2018-05-04T04:53:19.923Z,3.42
2018-05-04T04:55:47.331Z,4.07
2018-05-04T04:58:14.741Z,4.05
2018-05-04T05:00:42.148Z,1.50
2018-05-04T05:03:09.552Z,3.67
2018-05-04T05:05:36.956Z,2.17
2018-05-04T05:08:04.358Z,4.65
2018-05-04T05:10:31.764Z,2.92
2018-05-04T05:12:59.177Z,3.28
2018-05-04T05:15:26.582Z,3.72
2018-05-04T05:17:53.994Z,1.35
2018-05-04T05:20:21.409Z,4.30
2018-05-04T05:22:48.805Z,1.90
2018-05-04T05:25:16.217Z,2.47
2018-05-04T05:27:43.621Z,3.67
2018-05-04T05:30:11.035Z,3.20
2018-05-04T05:32:38.432Z,2.47
2018-05-04T05:35:05.845Z,3.40
2018-05-04T05:37:33.239Z,3.87
2018-05-04T05:40:00.641Z,3.05
2018-05-04T05:42:28.052Z,4.03
2018-05-04T05:44:55.458Z,4.60
2018-05-04T05:47:22.848Z,4.57
2018-05-04T05:49:50.260Z,2.58
2018-05-04T05:52:17.669Z,4.90
2018-05-04T05:54:45.076Z,3.05
2018-05-04T05:57:12.489Z,4.43
2018-05-04T05:59:39.888Z,2.00
2018-05-04T06:02:07.302Z,3.53
2018-05-04T06:04:34.722Z,4.18
2018-05-04T06:07:02.130Z,2.37
2018-05-04T06:09:29.543Z,2.85
2018-05-04T06:11:56.965Z,3.35
2018-05-04T06:14:24.391Z,4.00
2018-05-04T06:16:51.861Z,1.83
2018-05-04T06:19:19.263Z,2.97
2018-05-04T06:21:46.673Z,5.82
2018-05-04T06:24:14.099Z,5.95
2018-05-04T06:26:41.497Z,3.45
2018-05-04T06:29:08.916Z,4.20
2018-05-04T06:31:36.323Z,2.53
2018-05-04T06:34:03.729Z,2.35
2018-05-04T06:36:31.135Z,2.75
2018-05-04T06:38:58.546Z,3.83
2018-05-04T06:41:25.958Z,2.37
2018-05-04T06:43:53.372Z,4.62
2018-05-04T06:46:20.783Z,5.35
2018-05-04T06:48:48.228Z,4.57
2018-05-04T06:51:15.607Z,1.20
2018-05-04T06:53:43.011Z,2.53
2018-05-04T06:56:10.428Z,2.65
2018-05-04T06:58:37.827Z,2.47
2018-05-04T07:01:05.253Z,2.22
2018-05-04T07:03:32.657Z,6.07
2018-05-04T07:06:00.073Z,4.22
2018-05-04T07:08:27.471Z,2.45
2018-05-04T07:10:54.893Z,6.43
2018-05-04T07:13:22.295Z,6.30
2018-05-04T07:15:49.712Z,4.07
2018-05-04T07:18:17.108Z,2.22
2018-05-04T07:20:44.532Z,2.33
2018-05-04T07:23:11.940Z,6.60
2018-05-04T07:25:39.347Z,3.67
2018-05-04T07:28:06.752Z,4.50
2018-05-04T07:30:34.168Z,2.92
2018-05-04T07:33:01.573Z,5.12
2018-05-04T07:35:28.988Z,5.72
2018-05-04T07:37:56.392Z,5.65
2018-05-04T07:40:23.799Z,4.05
2018-05-04T07:42:51.209Z,6.57
2018-05-04T07:45:18.624Z,6.15
2018-05-04T07:47:46.028Z,4.90
2018-05-04T07:50:13.439Z,5.53
2018-05-04T07:52:40.845Z,5.18
2018-05-04T07:55:08.283Z,6.18
2018-05-04T07:57:37.293Z,5.60
2018-05-04T08:00:04.700Z,5.40
2018-05-04T08:02:32.104Z,6.62
2018-05-04T08:04:59.520Z,5.90
2018-05-04T08:07:26.944Z,5.25
2018-05-04T08:09:54.372Z,6.72
2018-05-04T08:12:21.792Z,6.90
2018-05-04T08:14:49.196Z,8.02
2018-05-04T08:17:16.608Z,8.30
2018-05-04T08:19:44.023Z,6.10
2018-05-04T08:22:11.428Z,6.40
2018-05-04T08:24:38.841Z,7.35
2018-05-04T08:27:06.251Z,6.00
2018-05-04T08:29:33.657Z,4.22
2018-05-04T08:32:01.067Z,2.65
2018-05-04T08:34:28.470Z,6.75
2018-05-04T08:36:55.873Z,2.90
2018-05-04T08:39:23.320Z,3.47
2018-05-04T08:41:50.688Z,4.57
2018-05-04T08:44:18.090Z,4.53
2018-05-04T08:46:45.503Z,3.75
2018-05-04T08:49:12.923Z,5.43
2018-05-04T08:51:40.339Z,4.57
2018-05-04T08:54:07.752Z,3.87
2018-05-04T08:56:35.168Z,4.95
2018-05-04T08:59:02.582Z,5.35
2018-05-04T09:01:29.988Z,5.85
2018-05-04T09:03:57.397Z,6.00
2018-05-04T09:06:24.809Z,8.63
2018-05-04T09:08:52.212Z,8.65
2018-05-04T09:11:19.629Z,6.00
2018-05-04T09:13:47.030Z,4.53
2018-05-04T09:16:14.443Z,7.85
2018-05-04T09:18:41.848Z,8.88
2018-05-04T09:21:09.269Z,6.60
2018-05-04T09:23:36.681Z,3.95
2018-05-04T09:26:04.100Z,8.38
2018-05-04T09:28:31.521Z,10.82
2018-05-04T09:30:59.011Z,9.13
2018-05-04T09:33:26.349Z,6.07
2018-05-04T09:35:53.772Z,10.63
2018-05-04T09:38:21.172Z,9.10
2018-05-04T09:40:48.597Z,12.60
2018-05-04T09:43:16.004Z,17.12
2018-05-04T09:45:43.416Z,13.65
2018-05-04T09:48:10.836Z,13.82
2018-05-04T09:50:38.240Z,20.08
2018-05-04T09:53:05.669Z,9.60
2018-05-04T09:55:33.080Z,17.37
2018-05-04T09:58:00.507Z,16.65
2018-05-04T10:00:27.921Z,13.32
2018-05-04T10:02:55.337Z,22.13
2018-05-04T10:05:22.784Z,16.37
2018-05-04T10:07:50.212Z,19.27
2018-05-04T10:10:17.620Z,18.90
2018-05-04T10:12:45.045Z,16.48
2018-05-04T10:15:12.456Z,13.93
2018-05-04T10:17:39.880Z,20.35
2018-05-04T10:20:07.297Z,18.58
2018-05-04T10:22:34.724Z,21.87
2018-05-04T10:25:02.135Z,17.45
2018-05-04T10:27:29.568Z,18.55
2018-05-04T10:29:56.967Z,22.13
2018-05-04T10:32:24.448Z,19.45
2018-05-04T10:34:51.810Z,23.83
2018-05-04T10:37:19.252Z,25.95
2018-05-04T10:39:46.670Z,28.23
2018-05-04T10:42:14.083Z,21.52
2018-05-04T10:44:41.509Z,25.67
2018-05-04T10:47:08.932Z,26.12
2018-05-04T10:49:36.352Z,23.40
2018-05-04T10:52:03.772Z,22.33
2018-05-04T10:54:31.188Z,22.27
2018-05-04T10:56:58.612Z,36.67
2018-05-04T10:59:26.052Z,19.62
2018-05-04T11:01:53.453Z,24.02
2018-05-04T11:04:20.868Z,27.35
2018-05-04T11:06:48.288Z,34.47
2018-05-04T11:09:15.701Z,29.55
2018-05-04T11:11:43.122Z,26.27
2018-05-04T11:14:10.532Z,26.62
2018-05-04T11:16:37.958Z,33.78
2018-05-04T11:19:05.421Z,16.52
2018-05-04T11:21:32.837Z,29.30
2018-05-04T11:24:00.260Z,25.25
2018-05-04T11:26:27.669Z,31.52
2018-05-04T11:28:55.161Z,24.48
2018-05-04T11:31:22.514Z,26.87
2018-05-04T11:33:49.934Z,23.73
2018-05-04T11:36:17.396Z,19.45
2018-05-04T11:38:44.812Z,23.77
2018-05-04T11:41:12.229Z,35.13
2018-05-04T11:43:39.652Z,34.92
2018-05-04T11:46:07.072Z,30.37
2018-05-04T11:48:34.489Z,26.40
2018-05-04T11:51:01.901Z,27.85
2018-05-04T11:53:29.321Z,33.25
2018-05-04T11:55:56.734Z,21.75
2018-05-04T11:58:24.157Z,23.08
2018-05-04T12:00:51.570Z,21.85
2018-05-04T12:03:18.994Z,23.98
2018-05-04T12:05:46.404Z,19.37
2018-05-04T12:08:13.824Z,21.95
2018-05-04T12:10:41.239Z,21.12
2018-05-04T12:13:08.657Z,34.33
2018-05-04T12:15:36.085Z,24.27
2018-05-04T12:18:03.523Z,36.47
2018-05-04T12:20:30.927Z,31.05
2018-05-04T12:22:58.353Z,26.40
2018-05-04T12:27:59.680Z,17.37
2018-05-04T12:30:27.112Z,30.45
2018-05-04T12:32:54.528Z,32.55
2018-05-04T12:35:21.943Z,29.08
2018-05-04T12:37:49.366Z,26.77
2018-05-04T12:40:16.777Z,27.58
2018-05-04T12:42:44.200Z,29.23
2018-05-04T12:45:11.622Z,50.30
2018-05-04T12:47:39.040Z,54.90
2018-05-04T12:50:06.479Z,33.83
2018-05-04T12:52:33.900Z,41.03
2018-05-04T12:55:01.313Z,31.25
2018-05-04T12:57:28.746Z,33.63
2018-05-04T12:59:56.156Z,37.58
2018-05-04T13:02:23.575Z,37.42
2018-05-04T13:04:51.001Z,42.03
2018-05-04T13:07:18.407Z,37.80
2018-05-04T13:09:45.832Z,30.52
2018-05-04T13:12:13.255Z,43.50
2018-05-04T13:14:40.677Z,50.17
2018-05-04T13:17:08.100Z,42.78
2018-05-04T13:19:35.525Z,44.95
2018-05-04T13:22:02.945Z,43.38
2018-05-04T13:24:30.364Z,33.33
2018-05-04T13:26:57.775Z,38.40
2018-05-04T13:29:25.196Z,41.33
2018-05-04T13:31:52.648Z,29.02
2018-05-04T13:34:20.085Z,41.63
2018-05-04T13:36:47.500Z,35.05
2018-05-04T13:39:14.924Z,45.05
2018-05-04T13:41:42.341Z,35.20
2018-05-04T13:44:09.767Z,33.08
2018-05-04T13:46:37.198Z,38.03
2018-05-04T13:49:04.621Z,36.20
2018-05-04T13:51:32.057Z,45.05
2018-05-04T13:53:59.465Z,35.65
2018-05-04T13:56:26.908Z,34.38
2018-05-04T13:58:54.336Z,30.85
2018-05-04T14:01:21.748Z,30.70
2018-05-04T14:03:49.258Z,44.63
2018-05-04T14:06:16.585Z,20.02
2018-05-04T14:08:44.001Z,39.53
2018-05-04T14:11:11.407Z,34.70
2018-05-04T14:13:38.833Z,49.70
2018-05-04T14:16:06.252Z,35.50
2018-05-04T14:18:33.677Z,38.08
2018-05-04T14:21:01.083Z,37.45
2018-05-04T14:23:28.504Z,33.42
2018-05-04T14:25:55.917Z,35.65
2018-05-04T14:28:23.335Z,34.33
2018-05-04T14:30:50.754Z,33.05
2018-05-04T14:33:18.186Z,29.80
2018-05-04T14:35:45.593Z,30.60
2018-05-04T14:38:13.004Z,23.67
2018-05-04T14:40:40.430Z,22.48
2018-05-04T14:43:07.842Z,42.17
2018-05-04T14:45:35.264Z,34.45
2018-05-04T14:48:02.684Z,44.92
2018-05-04T14:50:30.104Z,44.38
2018-05-04T14:52:57.528Z,27.95
2018-05-04T14:55:24.952Z,18.75
2018-05-04T14:57:52.384Z,24.90
2018-05-04T15:00:19.837Z,28.33
2018-05-04T15:02:47.260Z,28.35
2018-05-04T15:05:14.680Z,30.67
2018-05-04T15:07:42.092Z,30.83
2018-05-04T15:10:09.523Z,31.17
2018-05-04T15:12:36.932Z,28.85
2018-05-04T15:15:04.351Z,26.37
2018-05-04T15:17:31.767Z,22.95
2018-05-04T15:19:59.183Z,40.70
2018-05-04T15:22:26.601Z,27.67
2018-05-04T15:24:54.048Z,28.05
2018-05-04T15:27:21.440Z,35.00
2018-05-04T15:29:48.855Z,31.35
2018-05-04T15:32:16.272Z,19.52
2018-05-04T15:34:43.691Z,20.77
2018-05-04T15:37:11.108Z,29.05
2018-05-04T15:39:38.533Z,38.25
2018-05-04T15:42:05.945Z,33.13
2018-05-04T15:44:33.374Z,27.58
2018-05-04T15:47:00.781Z,19.37
2018-05-04T15:49:28.205Z,22.75
2018-05-04T15:52:01.245Z,21.62
2018-05-04T15:54:28.661Z,25.00
2018-05-04T15:56:56.073Z,28.50
2018-05-04T15:59:23.504Z,19.37
2018-05-04T16:01:50.915Z,18.12
2018-05-04T16:04:18.342Z,17.90
2018-05-04T16:06:45.752Z,26.08
2018-05-04T16:09:13.169Z,20.65
2018-05-04T16:11:40.580Z,17.65
2018-05-04T16:14:08.017Z,19.08
2018-05-04T16:16:35.436Z,23.38
2018-05-04T16:19:02.850Z,22.00
2018-05-04T16:21:30.272Z,34.75
2018-05-04T16:23:57.688Z,22.30
2018-05-04T16:26:25.112Z,17.10
2018-05-04T16:28:52.584Z,16.42
2018-05-04T16:31:19.956Z,29.42
2018-05-04T16:33:47.368Z,26.90
2018-05-04T16:36:14.793Z,24.15
2018-05-04T16:38:42.240Z,20.37
2018-05-04T16:41:09.636Z,17.08
2018-05-04T16:43:37.047Z,17.08
2018-05-04T16:46:04.471Z,22.15
2018-05-04T16:48:37.401Z,24.90
2018-05-04T16:51:04.823Z,21.80
2018-05-04T16:53:32.256Z,23.08
2018-05-04T16:55:59.673Z,19.60
2018-05-04T16:58:27.084Z,23.87
2018-05-04T17:00:54.510Z,17.80
2018-05-04T17:03:21.946Z,26.55
2018-05-04T17:05:49.338Z,30.67
2018-05-04T17:08:16.751Z,28.70
2018-05-04T17:10:44.179Z,15.45
2018-05-04T17:13:11.588Z,25.85
2018-05-04T17:15:39.020Z,19.77
2018-05-04T17:18:06.424Z,31.60
2018-05-04T17:20:33.840Z,20.48
2018-05-04T17:23:01.256Z,20.00
2018-05-04T17:25:28.676Z,17.48
2018-05-04T17:27:56.097Z,13.70
2018-05-04T17:30:23.509Z,17.65
2018-05-04T17:32:50.966Z,11.70
2018-05-04T17:35:18.385Z,16.98
2018-05-04T17:37:45.796Z,22.42
2018-05-04T17:40:13.371Z,26.85
2018-05-04T17:42:40.633Z,23.65
2018-05-04T17:45:08.052Z,21.33
2018-05-04T17:47:35.505Z,19.27
2018-05-04T17:50:02.893Z,17.23
2018-05-04T17:52:30.303Z,16.33
2018-05-04T17:54:57.716Z,21.48
2018-05-04T17:57:25.141Z,22.67
2018-05-04T17:59:52.553Z,30.00
2018-05-04T18:02:19.969Z,17.87
2018-05-04T18:04:47.386Z,24.63
2018-05-04T18:07:14.809Z,13.90
2018-05-04T18:09:42.225Z,20.62
2018-05-04T18:12:09.639Z,17.17
2018-05-04T18:14:37.065Z,15.15
2018-05-04T18:17:04.484Z,14.95
2018-05-04T18:19:31.896Z,17.60
2018-05-04T18:21:59.321Z,14.00
2018-05-04T18:24:26.732Z,12.07
2018-05-04T18:26:54.152Z,9.52
2018-05-04T18:29:21.568Z,12.57
2018-05-04T18:31:48.992Z,16.10
2018-05-04T18:34:16.411Z,13.48
2018-05-04T18:36:49.836Z,8.25
2018-05-04T18:39:17.257Z,11.45
2018-05-04T18:41:44.672Z,11.98
2018-05-04T18:44:12.087Z,8.75
2018-05-04T18:46:39.517Z,5.50
2018-05-04T18:49:06.925Z,7.55
2018-05-04T18:51:34.337Z,9.02
2018-05-04T18:54:01.753Z,7.28
2018-05-04T18:56:29.161Z,5.30
2018-05-04T18:58:56.565Z,7.00
2018-05-04T19:01:23.981Z,9.63
2018-05-04T19:03:51.384Z,4.53
2018-05-04T19:06:18.801Z,3.08
2018-05-04T19:08:46.212Z,4.75
2018-05-04T19:11:13.623Z,6.15
2018-05-04T19:13:41.041Z,5.87
2018-05-04T19:16:08.448Z,6.62
2018-05-04T19:18:35.856Z,36.35
2018-05-04T19:21:03.283Z,50.40
2018-05-04T19:23:30.692Z,24.00
2018-05-04T19:25:58.107Z,9.60
2018-05-04T19:28:25.515Z,5.37
2018-05-04T19:30:52.916Z,5.78
2018-05-04T19:33:20.368Z,8.55
2018-05-04T19:35:47.772Z,6.22
2018-05-04T19:38:15.188Z,4.65
2018-05-04T19:40:42.598Z,6.00
2018-05-04T19:43:10.009Z,3.87
2018-05-04T19:45:37.412Z,4.78
2018-05-04T19:48:04.841Z,5.95
2018-05-04T19:50:32.248Z,3.25
2018-05-04T19:52:59.672Z,4.25
2018-05-04T19:55:27.077Z,4.68
2018-05-04T19:57:54.487Z,1.95
2018-05-04T20:00:21.891Z,4.82
2018-05-04T20:02:49.309Z,5.15
2018-05-04T20:05:16.708Z,2.55
2018-05-04T20:07:44.135Z,3.60
2018-05-04T20:10:11.533Z,4.30
2018-05-04T20:12:38.953Z,2.92
2018-05-04T20:15:06.356Z,5.20
2018-05-04T20:17:33.768Z,3.08
2018-05-04T20:20:01.181Z,4.95
2018-05-04T20:22:28.589Z,4.55
2018-05-04T20:24:55.998Z,5.53
2018-05-04T20:27:23.408Z,5.03
2018-05-04T20:29:50.812Z,4.70
2018-05-04T20:32:18.225Z,6.12
2018-05-04T20:34:45.637Z,5.43
2018-05-04T20:37:13.048Z,5.37
2018-05-04T20:39:40.457Z,3.60
2018-05-04T20:42:07.879Z,6.20
2018-05-04T20:44:35.280Z,6.60
2018-05-04T20:47:02.736Z,7.93
2018-05-04T20:49:30.137Z,7.47
2018-05-04T20:51:57.627Z,5.03
2018-05-04T20:54:24.971Z,10.25
2018-05-04T20:56:52.388Z,9.95
2018-05-04T20:59:19.801Z,6.85
2018-05-04T21:01:47.228Z,6.53
2018-05-04T21:04:14.636Z,8.50
2018-05-04T21:06:42.095Z,4.87
2018-05-04T21:09:09.456Z,11.25
2018-05-04T21:11:36.902Z,7.37
2018-05-04T21:14:04.333Z,11.32
2018-05-04T21:16:31.724Z,6.10
2018-05-04T21:18:59.170Z,5.70
2018-05-04T21:21:26.568Z,5.62
2018-05-04T21:23:53.993Z,6.97
2018-05-04T21:26:21.392Z,5.15
2018-05-04T21:28:48.817Z,6.72
2018-05-04T21:31:16.228Z,7.90
2018-05-04T21:33:43.652Z,7.35
2018-05-04T21:36:11.064Z,5.20
2018-05-04T21:38:38.475Z,3.97
2018-05-04T21:41:05.892Z,7.75
2018-05-04T21:43:33.309Z,7.80
2018-05-04T21:46:00.712Z,8.50
2018-05-04T21:48:28.122Z,5.62
2018-05-04T21:50:55.533Z,7.87
2018-05-04T21:53:22.952Z,8.05
2018-05-04T21:55:50.360Z,7.75
2018-05-04T21:58:17.777Z,5.15
2018-05-04T22:00:45.184Z,8.32
2018-05-04T22:03:12.591Z,6.28
2018-05-04T22:05:40.000Z,6.57
2018-05-04T22:08:07.417Z,3.62
2018-05-04T22:10:34.816Z,6.93
2018-05-04T22:13:02.232Z,6.28
2018-05-04T22:15:29.723Z,5.43
2018-05-04T22:17:57.065Z,5.85
2018-05-04T22:20:24.468Z,7.82
2018-05-04T22:22:51.880Z,5.12
2018-05-04T22:25:19.287Z,4.57
2018-05-04T22:27:46.700Z,3.87
2018-05-04T22:30:14.108Z,4.60
2018-05-04T22:32:41.520Z,3.62
2018-05-04T22:35:08.929Z,4.65
2018-05-04T22:37:36.361Z,3.25
2018-05-04T22:40:03.768Z,3.00
2018-05-04T22:42:31.177Z,3.78
2018-05-04T22:44:58.591Z,5.30
2018-05-04T22:47:25.991Z,2.47
2018-05-04T22:49:53.408Z,3.03
2018-05-04T22:52:20.812Z,2.35
2018-05-04T22:54:48.228Z,4.05
2018-05-04T22:57:15.632Z,2.62
2018-05-04T22:59:43.045Z,6.40
2018-05-04T23:02:10.451Z,3.50
2018-05-04T23:04:37.860Z,2.53
2018-05-04T23:07:05.272Z,4.05
2018-05-04T23:09:32.696Z,2.83
2018-05-04T23:12:00.101Z,3.45
2018-05-04T23:14:27.605Z,1.45
2018-05-04T23:16:55.017Z,2.53
2018-05-04T23:19:22.486Z,1.67
2018-05-04T23:21:49.884Z,2.80
2018-05-04T23:24:17.294Z,1.67
2018-05-04T23:26:44.704Z,2.70
2018-05-04T23:29:12.119Z,2.25
2018-05-04T23:31:39.521Z,2.42
2018-05-04T23:34:06.993Z,4.45
2018-05-04T23:36:34.342Z,1.87
2018-05-04T23:39:01.752Z,2.40
2018-05-04T23:41:29.163Z,2.47
2018-05-04T23:43:56.576Z,2.03
2018-05-04T23:46:23.984Z,1.85
2018-05-04T23:48:51.403Z,2.92
2018-05-04T23:51:18.804Z,2.97
2018-05-04T23:53:46.224Z,3.60
2018-05-04T23:56:13.637Z,2.42
2018-05-04T23:58:41.057Z,2.30
